createdAt,value
2022-11-13T00:00:35.686Z,15.70
2022-11-13T00:01:35.685Z,11.70
2022-11-13T00:02:35.728Z,13.40
2022-11-13T00:03:35.645Z,14.30
2022-11-13T00:04:35.636Z,22.00
2022-11-13T00:05:35.619Z,17.10
2022-11-13T00:06:35.759Z,18.10
2022-11-13T00:07:35.609Z,21.30
2022-11-13T00:08:35.607Z,20.50
2022-11-13T00:09:35.575Z,19.50
2022-11-13T00:10:35.566Z,16.50
2022-11-13T00:11:35.576Z,20.30
2022-11-13T00:12:35.548Z,16.50
2022-11-13T00:13:35.539Z,19.50
2022-11-13T00:14:35.551Z,22.50
2022-11-13T00:15:35.516Z,21.70
2022-11-13T00:16:35.821Z,22.00
2022-11-13T00:17:35.601Z,23.80
2022-11-13T00:18:35.478Z,24.50
2022-11-13T00:19:35.478Z,25.80
2022-11-13T00:20:35.458Z,23.70
2022-11-13T00:21:35.466Z,21.70
2022-11-13T00:22:35.446Z,18.90
2022-11-13T00:23:35.429Z,21.90
2022-11-13T00:24:35.424Z,20.10
2022-11-13T00:25:35.397Z,20.50
2022-11-13T00:26:35.408Z,20.40
2022-11-13T00:27:35.377Z,17.90
2022-11-13T00:28:35.388Z,19.60
2022-11-13T00:29:35.357Z,21.30
2022-11-13T00:30:35.348Z,19.80
2022-11-13T00:31:35.329Z,18.80
2022-11-13T00:32:35.330Z,15.00
2022-11-13T00:34:51.766Z,21.80
2022-11-13T00:35:36.299Z,17.90
2022-11-13T00:36:35.278Z,19.80
2022-11-13T00:37:36.216Z,17.20
2022-11-13T00:38:35.265Z,18.70
2022-11-13T00:39:35.269Z,17.20
2022-11-13T00:40:35.243Z,21.00
2022-11-13T00:41:35.226Z,15.90
2022-11-13T00:42:35.258Z,16.00
2022-11-13T00:43:35.197Z,17.60
2022-11-13T00:44:35.208Z,19.80
2022-11-13T00:45:35.177Z,20.20
2022-11-13T00:46:35.183Z,16.40
2022-11-13T00:47:35.157Z,17.50
2022-11-13T00:48:35.148Z,19.20
2022-11-13T00:49:35.158Z,18.00
2022-11-13T00:50:35.128Z,16.90
2022-11-13T00:51:35.119Z,17.00
2022-11-13T00:52:35.113Z,14.80
2022-11-13T00:53:35.093Z,18.40
2022-11-13T00:54:35.088Z,18.10
2022-11-13T00:55:35.090Z,18.80
2022-11-13T00:56:35.089Z,17.00
2022-11-13T00:57:35.048Z,15.20
2022-11-13T00:58:35.039Z,15.90
2022-11-13T00:59:35.020Z,17.20
2022-11-13T01:00:35.017Z,16.80
2022-11-13T01:01:35.087Z,18.50
2022-11-13T01:02:34.988Z,16.20
2022-11-13T01:03:34.980Z,18.30
2022-11-13T01:04:34.970Z,20.90
2022-11-13T01:05:34.990Z,19.20
2022-11-13T01:06:34.950Z,18.00
2022-11-13T01:07:42.712Z,17.30
2022-11-13T01:08:34.932Z,18.10
2022-11-13T01:09:34.913Z,17.10
2022-11-13T01:10:34.903Z,18.10
2022-11-13T01:11:34.914Z,17.20
2022-11-13T01:12:34.881Z,16.80
2022-11-13T01:13:34.873Z,13.50
2022-11-13T01:14:34.863Z,17.90
2022-11-13T01:15:34.851Z,14.70
2022-11-13T01:16:34.862Z,13.80
2022-11-13T01:17:34.821Z,15.20
2022-11-13T01:18:34.820Z,12.00
2022-11-13T01:19:34.806Z,17.00
2022-11-13T01:20:34.803Z,13.40
2022-11-13T01:21:34.801Z,15.30
2022-11-13T01:22:34.772Z,12.50
2022-11-13T01:23:34.753Z,13.20
2022-11-13T01:24:34.745Z,13.40
2022-11-13T01:25:34.744Z,12.40
2022-11-13T01:26:34.744Z,13.90
2022-11-13T01:27:34.720Z,13.30
2022-11-13T01:28:34.713Z,13.20
2022-11-13T01:29:34.693Z,13.00
2022-11-13T01:30:34.682Z,13.50
2022-11-13T01:31:34.694Z,11.00
2022-11-13T01:32:34.656Z,11.50
2022-11-13T01:33:34.652Z,10.70
2022-11-13T01:34:34.640Z,12.60
2022-11-13T01:35:34.632Z,14.00
2022-11-13T01:36:34.611Z,12.30
2022-11-13T01:37:34.623Z,10.30
2022-11-13T01:38:36.794Z,11.30
2022-11-13T01:39:34.584Z,9.50
2022-11-13T01:40:34.575Z,12.20
2022-11-13T01:41:34.562Z,10.70
2022-11-13T01:42:34.572Z,9.40
2022-11-13T01:43:34.544Z,11.30
2022-11-13T01:44:34.531Z,10.30
2022-11-13T01:45:34.523Z,14.20
2022-11-13T01:46:34.505Z,14.30
2022-11-13T01:47:34.500Z,12.10
2022-11-13T01:48:34.504Z,11.60
2022-11-13T01:49:34.473Z,14.40
2022-11-13T01:50:34.465Z,10.80
2022-11-13T01:51:34.452Z,14.60
2022-11-13T01:52:34.435Z,11.70
2022-11-13T01:53:34.454Z,11.60
2022-11-13T01:54:34.412Z,13.20
2022-11-13T01:55:34.411Z,12.20
2022-11-13T01:56:34.395Z,13.50
2022-11-13T01:57:34.386Z,11.40
2022-11-13T01:58:34.374Z,13.40
2022-11-13T01:59:34.384Z,13.60
2022-11-13T02:00:34.353Z,10.90
2022-11-13T02:01:34.419Z,11.70
2022-11-13T02:02:34.332Z,11.10
2022-11-13T02:03:34.326Z,13.00
2022-11-13T02:04:34.326Z,11.40
2022-11-13T02:05:34.297Z,12.50
2022-11-13T02:06:34.284Z,14.10
2022-11-13T02:07:34.275Z,11.30
2022-11-13T02:08:34.283Z,11.30
2022-11-13T02:09:34.283Z,12.10
2022-11-13T02:10:34.239Z,12.90
2022-11-13T02:11:34.233Z,13.90
2022-11-13T02:12:34.217Z,14.90
2022-11-13T02:13:34.225Z,11.00
2022-11-13T02:14:34.402Z,14.80
2022-11-13T02:15:34.194Z,13.70
2022-11-13T02:16:34.172Z,13.30
2022-11-13T02:17:34.163Z,10.10
2022-11-13T02:18:34.160Z,16.70
2022-11-13T02:19:34.163Z,16.20
2022-11-13T02:20:34.129Z,11.80
2022-11-13T02:21:34.129Z,11.00
2022-11-13T02:22:34.116Z,12.60
2022-11-13T02:23:34.107Z,12.20
2022-11-13T02:24:36.804Z,9.80
2022-11-13T02:25:34.096Z,11.90
2022-11-13T02:26:34.073Z,9.60
2022-11-13T02:27:34.055Z,11.00
2022-11-13T02:28:34.045Z,12.00
2022-11-13T02:29:34.036Z,12.80
2022-11-13T02:30:34.048Z,9.60
2022-11-13T02:31:34.013Z,11.00
2022-11-13T02:32:34.003Z,10.10
2022-11-13T02:33:34.000Z,12.20
2022-11-13T02:34:34.008Z,10.70
2022-11-13T02:35:33.965Z,10.30
2022-11-13T02:36:33.955Z,12.00
2022-11-13T02:37:33.946Z,12.10
2022-11-13T02:38:33.936Z,9.50
2022-11-13T02:39:33.924Z,11.40
2022-11-13T02:40:33.934Z,9.60
2022-11-13T02:41:33.933Z,9.60
2022-11-13T02:42:33.894Z,12.00
2022-11-13T02:43:33.885Z,10.40
2022-11-13T02:44:33.865Z,10.70
2022-11-13T02:45:33.876Z,10.90
2022-11-13T02:46:33.845Z,8.50
2022-11-13T02:47:33.836Z,9.90
2022-11-13T02:48:33.824Z,11.30
2022-11-13T02:49:33.816Z,12.20
2022-11-13T02:50:33.816Z,12.40
2022-11-13T02:51:33.864Z,10.00
2022-11-13T02:52:33.799Z,9.80
2022-11-13T02:53:33.775Z,10.80
2022-11-13T02:54:33.755Z,9.50
2022-11-13T02:55:33.775Z,10.40
2022-11-13T02:56:33.739Z,10.30
2022-11-13T02:57:33.733Z,13.20
2022-11-13T02:58:33.714Z,9.20
2022-11-13T02:59:33.706Z,12.40
2022-11-13T03:00:33.706Z,10.10
2022-11-13T03:01:33.744Z,9.10
2022-11-13T03:02:33.668Z,13.80
2022-11-13T03:03:56.451Z,12.70
2022-11-13T03:04:50.497Z,11.30
2022-11-13T03:05:34.665Z,10.30
2022-11-13T03:06:33.624Z,12.10
2022-11-13T03:07:33.643Z,10.40
2022-11-13T03:08:34.692Z,8.70
2022-11-13T03:09:33.596Z,9.20
2022-11-13T03:10:33.586Z,11.90
2022-11-13T03:11:33.595Z,10.70
2022-11-13T03:12:33.556Z,12.10
2022-11-13T03:13:33.557Z,11.60
2022-11-13T03:14:33.534Z,11.40
2022-11-13T03:15:33.554Z,11.00
2022-11-13T03:16:33.516Z,11.30
2022-11-13T03:17:33.529Z,10.30
2022-11-13T03:18:33.495Z,10.60
2022-11-13T03:19:33.487Z,8.90
2022-11-13T03:20:33.496Z,11.90
2022-11-13T03:21:33.466Z,11.00
2022-11-13T03:22:33.456Z,12.90
2022-11-13T03:23:33.465Z,12.00
2022-11-13T03:24:33.428Z,9.10
2022-11-13T03:25:33.427Z,11.30
2022-11-13T03:26:33.406Z,9.90
2022-11-13T03:27:33.408Z,8.70
2022-11-13T03:28:33.384Z,7.40
2022-11-13T03:29:33.397Z,11.00
2022-11-13T03:30:33.364Z,10.70
2022-11-13T03:31:33.361Z,9.80
2022-11-13T03:32:33.344Z,9.10
2022-11-13T03:33:33.341Z,11.30
2022-11-13T03:34:33.346Z,9.10
2022-11-13T03:35:40.050Z,11.20
2022-11-13T03:36:34.297Z,13.10
2022-11-13T03:37:33.287Z,9.70
2022-11-13T03:38:33.275Z,8.10
2022-11-13T03:39:33.265Z,10.70
2022-11-13T03:40:33.276Z,8.20
2022-11-13T03:41:33.245Z,10.50
2022-11-13T03:42:33.234Z,15.70
2022-11-13T03:43:33.224Z,9.30
2022-11-13T03:44:33.205Z,10.00
2022-11-13T03:45:33.229Z,10.40
2022-11-13T03:46:33.184Z,9.70
2022-11-13T03:47:33.214Z,8.90
2022-11-13T03:48:33.166Z,10.10
2022-11-13T03:49:33.156Z,10.10
2022-11-13T03:50:33.144Z,10.60
2022-11-13T03:51:33.177Z,11.30
2022-11-13T03:52:33.115Z,9.80
2022-11-13T03:53:33.113Z,11.30
2022-11-13T03:54:33.102Z,7.40
2022-11-13T03:55:33.093Z,11.30
2022-11-13T03:56:33.079Z,12.30
2022-11-13T03:57:33.094Z,9.00
2022-11-13T03:58:33.056Z,9.30
2022-11-13T03:59:33.045Z,12.40
2022-11-13T04:00:33.035Z,14.20
2022-11-13T04:01:33.055Z,11.70
2022-11-13T04:02:33.035Z,10.50
2022-11-13T04:03:33.010Z,11.00
2022-11-13T04:04:32.992Z,11.50
2022-11-13T04:05:32.983Z,10.00
2022-11-13T04:06:32.974Z,10.90
2022-11-13T04:07:32.985Z,11.70
2022-11-13T04:08:32.944Z,9.70
2022-11-13T04:09:32.944Z,9.60
2022-11-13T04:10:32.932Z,11.00
2022-11-13T04:11:32.924Z,9.80
2022-11-13T04:12:32.906Z,7.90
2022-11-13T04:13:32.925Z,10.50
2022-11-13T04:14:32.882Z,8.60
2022-11-13T04:15:32.873Z,8.70
2022-11-13T04:16:32.867Z,10.90
2022-11-13T04:17:32.852Z,11.70
2022-11-13T04:18:32.843Z,8.90
2022-11-13T04:19:32.851Z,12.00
2022-11-13T04:20:32.816Z,8.80
2022-11-13T04:21:32.805Z,9.60
2022-11-13T04:22:32.800Z,8.70
2022-11-13T04:23:32.817Z,9.30
2022-11-13T04:24:32.794Z,8.20
2022-11-13T04:25:32.765Z,10.30
2022-11-13T04:26:32.747Z,9.80
2022-11-13T04:27:32.743Z,8.80
2022-11-13T04:28:32.864Z,10.60
2022-11-13T04:29:32.740Z,9.00
2022-11-13T04:30:32.705Z,6.70
2022-11-13T04:31:32.697Z,11.50
2022-11-13T04:32:32.684Z,8.20
2022-11-13T04:33:32.714Z,8.30
2022-11-13T04:34:32.664Z,10.10
2022-11-13T04:35:32.671Z,7.40
2022-11-13T04:36:32.647Z,8.00
2022-11-13T04:37:32.634Z,7.30
2022-11-13T04:38:32.637Z,8.40
2022-11-13T04:39:32.635Z,8.20
2022-11-13T04:40:32.594Z,7.80
2022-11-13T04:41:32.585Z,10.90
2022-11-13T04:42:32.577Z,7.40
2022-11-13T04:43:32.574Z,8.80
2022-11-13T04:44:32.576Z,8.50
2022-11-13T04:45:32.545Z,8.10
2022-11-13T04:46:32.535Z,13.10
2022-11-13T04:47:32.527Z,8.40
2022-11-13T04:48:32.516Z,11.20
2022-11-13T04:49:32.532Z,8.50
2022-11-13T04:50:32.504Z,7.80
2022-11-13T04:51:32.486Z,11.10
2022-11-13T04:52:32.483Z,8.50
2022-11-13T04:53:32.461Z,10.20
2022-11-13T04:54:32.472Z,8.40
2022-11-13T04:55:32.448Z,8.90
2022-11-13T04:56:32.425Z,9.30
2022-11-13T04:57:32.416Z,11.70
2022-11-13T04:58:32.404Z,9.00
2022-11-13T04:59:32.426Z,6.00
2022-11-13T05:00:32.384Z,7.60
2022-11-13T05:01:32.419Z,7.40
2022-11-13T05:02:32.356Z,8.00
2022-11-13T05:03:32.356Z,7.20
2022-11-13T05:04:32.366Z,9.40
2022-11-13T05:05:32.333Z,8.20
2022-11-13T05:06:32.316Z,9.30
2022-11-13T05:07:32.324Z,8.90
2022-11-13T05:08:32.298Z,10.40
2022-11-13T05:09:32.305Z,8.00
2022-11-13T05:10:32.295Z,6.40
2022-11-13T05:11:32.273Z,7.80
2022-11-13T05:12:32.256Z,7.40
2022-11-13T05:13:32.247Z,7.80
2022-11-13T05:14:32.235Z,8.50
2022-11-13T05:15:32.253Z,6.90
2022-11-13T05:16:32.215Z,8.80
2022-11-13T05:17:32.194Z,7.50
2022-11-13T05:18:32.192Z,7.10
2022-11-13T05:19:32.185Z,7.20
2022-11-13T05:20:32.176Z,9.40
2022-11-13T05:21:32.183Z,5.70
2022-11-13T05:22:32.145Z,6.90
2022-11-13T05:23:32.137Z,9.40
2022-11-13T05:24:32.124Z,6.10
2022-11-13T05:25:32.116Z,7.00
2022-11-13T05:26:32.105Z,6.60
2022-11-13T05:27:32.114Z,10.50
2022-11-13T05:28:32.107Z,6.20
2022-11-13T05:29:32.075Z,8.10
2022-11-13T05:30:32.064Z,6.20
2022-11-13T05:31:32.064Z,8.30
2022-11-13T05:32:32.041Z,6.00
2022-11-13T05:33:32.024Z,9.30
2022-11-13T05:34:32.036Z,8.20
2022-11-13T05:35:32.005Z,6.60
2022-11-13T05:36:31.994Z,6.60
2022-11-13T05:37:31.983Z,5.70
2022-11-13T05:38:32.002Z,6.40
2022-11-13T05:39:31.982Z,5.70
2022-11-13T05:40:31.954Z,6.00
2022-11-13T05:41:31.934Z,5.80
2022-11-13T05:42:31.933Z,7.70
2022-11-13T05:43:31.929Z,6.00
2022-11-13T05:44:31.932Z,5.60
2022-11-13T05:45:31.893Z,7.60
2022-11-13T05:46:31.884Z,5.20
2022-11-13T05:47:31.874Z,7.50
2022-11-13T05:48:32.000Z,7.20
2022-11-13T05:49:31.876Z,6.80
2022-11-13T05:50:31.843Z,6.90
2022-11-13T05:51:31.833Z,7.30
2022-11-13T05:52:31.826Z,7.60
2022-11-13T05:53:31.812Z,6.20
2022-11-13T05:54:31.802Z,6.00
2022-11-13T05:55:31.812Z,6.50
2022-11-13T05:56:31.789Z,7.70
2022-11-13T05:57:31.774Z,7.40
2022-11-13T05:58:31.877Z,7.60
2022-11-13T05:59:31.751Z,6.90
2022-11-13T06:00:31.752Z,4.60
2022-11-13T06:01:31.815Z,7.90
2022-11-13T06:02:31.728Z,5.10
2022-11-13T06:03:31.694Z,5.70
2022-11-13T06:04:31.693Z,5.10
2022-11-13T06:05:31.702Z,5.50
2022-11-13T06:06:31.695Z,5.60
2022-11-13T06:07:31.651Z,5.20
2022-11-13T06:08:31.675Z,5.50
2022-11-13T06:09:31.632Z,6.60
2022-11-13T06:10:31.631Z,5.50
2022-11-13T06:11:31.635Z,5.20
2022-11-13T06:12:31.602Z,6.30
2022-11-13T06:13:31.593Z,5.40
2022-11-13T06:14:31.583Z,10.60
2022-11-13T06:15:31.565Z,5.40
2022-11-13T06:16:31.583Z,7.50
2022-11-13T06:17:31.552Z,7.90
2022-11-13T06:18:31.931Z,6.30
2022-11-13T06:19:31.523Z,5.40
2022-11-13T06:20:31.521Z,7.90
2022-11-13T06:21:31.536Z,6.50
2022-11-13T06:22:31.531Z,8.40
2022-11-13T06:23:31.485Z,6.30
2022-11-13T06:24:31.474Z,6.60
2022-11-13T06:25:31.463Z,6.80
2022-11-13T06:26:31.474Z,5.90
2022-11-13T06:27:31.445Z,7.20
2022-11-13T06:28:31.624Z,7.00
2022-11-13T06:29:31.421Z,5.40
2022-11-13T06:30:31.411Z,6.90
2022-11-13T06:31:31.414Z,9.00
2022-11-13T06:32:31.392Z,7.40
2022-11-13T06:33:31.374Z,5.80
2022-11-13T06:34:31.372Z,6.20
2022-11-13T06:35:31.354Z,6.70
2022-11-13T06:36:31.371Z,5.10
2022-11-13T06:37:34.581Z,5.40
2022-11-13T06:38:31.783Z,5.20
2022-11-13T06:39:31.336Z,5.40
2022-11-13T06:40:31.442Z,5.90
2022-11-13T06:41:31.368Z,5.90
2022-11-13T06:42:31.325Z,5.70
2022-11-13T06:43:31.270Z,5.60
2022-11-13T06:44:31.263Z,6.00
2022-11-13T06:45:31.310Z,5.70
2022-11-13T06:46:31.292Z,5.60
2022-11-13T06:47:31.244Z,7.10
2022-11-13T06:48:31.433Z,7.00
2022-11-13T06:49:31.226Z,7.70
2022-11-13T06:50:31.203Z,6.90
2022-11-13T06:51:31.184Z,7.40
2022-11-13T06:52:31.202Z,5.90
2022-11-13T06:53:31.163Z,5.10
2022-11-13T06:54:31.154Z,8.50
2022-11-13T06:55:31.145Z,6.50
2022-11-13T06:56:31.134Z,6.00
2022-11-13T06:57:31.122Z,6.10
2022-11-13T06:58:31.574Z,5.80
2022-11-13T06:59:31.094Z,6.40
2022-11-13T07:00:36.217Z,4.90
2022-11-13T07:01:32.116Z,6.40
2022-11-13T07:02:31.068Z,5.60
2022-11-13T07:03:31.075Z,4.70
2022-11-13T07:04:31.053Z,5.30
2022-11-13T07:05:31.032Z,5.40
2022-11-13T07:06:31.032Z,5.50
2022-11-13T07:07:31.034Z,5.60
2022-11-13T07:08:31.331Z,7.00
2022-11-13T07:09:30.994Z,6.20
2022-11-13T07:10:30.987Z,4.60
2022-11-13T07:11:30.972Z,9.50
2022-11-13T07:12:30.955Z,5.70
2022-11-13T07:13:30.966Z,5.30
2022-11-13T07:14:30.938Z,5.80
2022-11-13T07:15:30.923Z,6.80
2022-11-13T07:16:44.096Z,5.30
2022-11-13T07:17:31.904Z,6.50
2022-11-13T07:18:31.161Z,6.20
2022-11-13T07:19:30.905Z,5.70
2022-11-13T07:20:30.872Z,5.70
2022-11-13T07:21:30.860Z,5.00
2022-11-13T07:22:30.862Z,6.30
2022-11-13T07:23:30.854Z,9.90
2022-11-13T07:24:30.855Z,6.50
2022-11-13T07:25:30.816Z,6.80
2022-11-13T07:26:30.807Z,5.80
2022-11-13T07:27:30.804Z,6.40
2022-11-13T07:28:31.161Z,8.00
2022-11-13T07:29:30.798Z,7.00
2022-11-13T07:30:30.773Z,7.50
2022-11-13T07:31:30.752Z,6.90
2022-11-13T07:32:30.765Z,6.20
2022-11-13T07:33:30.733Z,6.00
2022-11-13T07:34:30.751Z,6.60
2022-11-13T07:35:30.704Z,5.00
2022-11-13T07:36:30.695Z,7.70
2022-11-13T07:37:30.711Z,6.20
2022-11-13T07:38:30.899Z,6.10
2022-11-13T07:39:30.663Z,5.10
2022-11-13T07:40:30.655Z,5.70
2022-11-13T07:41:30.643Z,7.60
2022-11-13T07:42:30.634Z,4.80
2022-11-13T07:43:30.643Z,6.40
2022-11-13T07:44:53.468Z,6.20
2022-11-13T07:45:31.625Z,6.40
2022-11-13T07:46:30.593Z,7.60
2022-11-13T07:47:30.582Z,5.40
2022-11-13T07:48:30.957Z,5.90
2022-11-13T07:49:30.554Z,7.40
2022-11-13T07:50:30.659Z,6.40
2022-11-13T07:51:30.533Z,6.50
2022-11-13T07:52:30.533Z,6.70
2022-11-13T07:53:30.515Z,8.40
2022-11-13T07:54:30.525Z,6.70
2022-11-13T07:55:30.517Z,5.50
2022-11-13T07:56:30.486Z,7.00
2022-11-13T07:57:30.470Z,6.10
2022-11-13T07:58:30.951Z,8.00
2022-11-13T07:59:30.456Z,5.40
2022-11-13T08:00:30.465Z,6.20
2022-11-13T08:01:30.486Z,5.00
2022-11-13T08:02:30.424Z,5.80
2022-11-13T08:03:30.408Z,7.00
2022-11-13T08:04:30.409Z,5.10
2022-11-13T08:05:30.385Z,7.70
2022-11-13T08:06:30.395Z,7.50
2022-11-13T08:07:30.363Z,8.10
2022-11-13T08:08:30.651Z,5.50
2022-11-13T08:09:30.366Z,5.80
2022-11-13T08:10:30.331Z,7.30
2022-11-13T08:11:30.317Z,6.80
2022-11-13T08:12:30.313Z,6.70
2022-11-13T08:13:30.296Z,6.90
2022-11-13T08:14:30.284Z,5.90
2022-11-13T08:15:30.304Z,6.30
2022-11-13T08:16:30.292Z,5.30
2022-11-13T08:17:30.255Z,7.50
2022-11-13T08:18:30.609Z,6.80
2022-11-13T08:19:30.226Z,9.00
2022-11-13T08:20:30.246Z,5.30
2022-11-13T08:21:30.205Z,6.20
2022-11-13T08:22:30.205Z,4.80
2022-11-13T08:23:30.194Z,4.70
2022-11-13T08:24:30.176Z,7.10
2022-11-13T08:25:30.167Z,6.20
2022-11-13T08:26:30.175Z,5.70
2022-11-13T08:27:30.142Z,7.20
2022-11-13T08:28:30.556Z,10.90
2022-11-13T08:29:30.125Z,7.10
2022-11-13T08:30:30.137Z,5.70
2022-11-13T08:31:30.096Z,6.00
2022-11-13T08:32:30.094Z,4.70
2022-11-13T08:33:30.077Z,4.80
2022-11-13T08:34:30.067Z,5.30
2022-11-13T08:35:30.077Z,5.70
2022-11-13T08:36:30.045Z,7.10
2022-11-13T08:37:30.054Z,4.20
2022-11-13T08:38:30.311Z,4.20
2022-11-13T08:39:30.014Z,4.30
2022-11-13T08:40:30.008Z,5.20
2022-11-13T08:41:29.989Z,7.00
2022-11-13T08:42:29.998Z,5.70
2022-11-13T08:43:29.967Z,6.20
2022-11-13T08:44:29.969Z,5.30
2022-11-13T08:45:29.946Z,4.70
2022-11-13T08:46:29.941Z,5.30
2022-11-13T08:47:29.938Z,4.60
2022-11-13T08:48:30.245Z,4.70
2022-11-13T08:49:29.900Z,4.90
2022-11-13T08:50:29.890Z,4.30
2022-11-13T08:51:29.880Z,5.30
2022-11-13T08:52:29.894Z,5.00
2022-11-13T08:53:29.877Z,4.80
2022-11-13T08:54:29.847Z,4.40
2022-11-13T08:55:29.828Z,4.30
2022-11-13T08:56:29.824Z,6.80
2022-11-13T08:57:29.837Z,5.50
2022-11-13T08:58:30.031Z,3.20
2022-11-13T08:59:29.789Z,4.40
2022-11-13T09:00:29.777Z,5.50
2022-11-13T09:01:29.767Z,7.50
2022-11-13T09:02:29.787Z,4.00
2022-11-13T09:03:29.828Z,4.30
2022-11-13T09:04:29.741Z,6.60
2022-11-13T09:05:29.724Z,3.80
2022-11-13T09:06:29.716Z,4.70
2022-11-13T09:07:29.757Z,4.90
2022-11-13T09:08:29.892Z,5.20
2022-11-13T09:09:29.677Z,4.30
2022-11-13T09:10:29.667Z,4.50
2022-11-13T09:11:29.690Z,5.30
2022-11-13T09:12:29.649Z,4.70
2022-11-13T09:13:29.678Z,5.80
2022-11-13T09:14:29.629Z,4.80
2022-11-13T09:15:29.640Z,5.60
2022-11-13T09:16:29.608Z,5.70
2022-11-13T09:17:29.590Z,3.50
2022-11-13T09:18:30.136Z,5.50
2022-11-13T09:19:29.603Z,2.90
2022-11-13T09:20:29.559Z,5.00
2022-11-13T09:21:29.567Z,4.20
2022-11-13T09:22:29.538Z,4.30
2022-11-13T09:23:29.533Z,6.70
2022-11-13T09:24:29.518Z,3.60
2022-11-13T09:25:34.280Z,3.60
2022-11-13T09:26:30.510Z,4.00
2022-11-13T09:27:29.485Z,4.60
2022-11-13T09:28:29.792Z,3.70
2022-11-13T09:29:29.538Z,2.80
2022-11-13T09:30:29.446Z,3.60
2022-11-13T09:31:29.456Z,4.60
2022-11-13T09:32:29.420Z,7.00
2022-11-13T09:33:29.412Z,4.50
2022-11-13T09:34:29.404Z,3.90
2022-11-13T09:35:29.390Z,2.90
2022-11-13T09:36:29.459Z,2.40
2022-11-13T09:37:29.387Z,3.60
2022-11-13T09:38:29.739Z,3.20
2022-11-13T09:39:29.349Z,3.50
2022-11-13T09:40:29.338Z,2.90
2022-11-13T09:41:29.319Z,2.80
2022-11-13T09:42:29.336Z,5.20
2022-11-13T09:43:29.301Z,3.00
2022-11-13T09:44:29.290Z,4.80
2022-11-13T09:45:29.273Z,5.10
2022-11-13T09:46:29.302Z,3.00
2022-11-13T09:47:29.261Z,4.00
2022-11-13T09:48:29.525Z,2.30
2022-11-13T09:49:29.233Z,3.10
2022-11-13T09:50:29.221Z,2.90
2022-11-13T09:51:29.231Z,3.00
2022-11-13T09:52:29.201Z,4.40
2022-11-13T09:53:29.191Z,3.20
2022-11-13T09:54:29.173Z,1.80
2022-11-13T09:55:29.164Z,2.60
2022-11-13T09:56:29.173Z,2.50
2022-11-13T09:57:29.148Z,2.00
2022-11-13T09:58:29.432Z,2.80
2022-11-13T09:59:29.124Z,3.00
2022-11-13T10:00:29.105Z,2.50
2022-11-13T10:01:29.185Z,3.70
2022-11-13T10:02:29.084Z,2.80
2022-11-13T10:03:46.618Z,9.10
2022-11-13T10:04:30.124Z,4.20
2022-11-13T10:05:29.054Z,1.80
2022-11-13T10:06:29.064Z,3.50
2022-11-13T10:07:29.033Z,2.90
2022-11-13T10:08:29.362Z,4.40
2022-11-13T10:09:29.017Z,3.70
2022-11-13T10:10:28.996Z,3.20
2022-11-13T10:11:29.015Z,6.10
2022-11-13T10:12:28.975Z,2.80
2022-11-13T10:13:28.973Z,3.10
2022-11-13T10:14:28.954Z,2.30
2022-11-13T10:15:28.946Z,3.60
2022-11-13T10:16:28.926Z,3.90
2022-11-13T10:17:28.947Z,3.60
2022-11-13T10:18:29.179Z,9.20
2022-11-13T10:19:28.898Z,5.40
2022-11-13T10:20:28.885Z,6.90
2022-11-13T10:21:28.878Z,2.40
2022-11-13T10:22:33.811Z,2.70
2022-11-13T10:23:30.207Z,2.40
2022-11-13T10:24:28.845Z,3.30
2022-11-13T10:25:28.839Z,2.50
2022-11-13T10:26:28.865Z,1.90
2022-11-13T10:27:28.873Z,3.90
2022-11-13T10:28:49.442Z,2.80
2022-11-13T10:29:29.788Z,2.50
2022-11-13T10:30:28.771Z,2.40
2022-11-13T10:31:28.776Z,4.40
2022-11-13T10:32:28.751Z,2.20
2022-11-13T10:33:29.049Z,3.90
2022-11-13T10:34:28.730Z,3.50
2022-11-13T10:35:28.725Z,2.10
2022-11-13T10:36:28.711Z,2.30
2022-11-13T10:37:28.705Z,3.40
2022-11-13T10:38:28.701Z,4.00
2022-11-13T10:39:28.731Z,3.00
2022-11-13T10:40:28.669Z,2.40
2022-11-13T10:41:28.650Z,2.10
2022-11-13T10:42:28.640Z,2.80
2022-11-13T10:43:29.014Z,4.90
2022-11-13T10:44:28.612Z,3.20
2022-11-13T10:45:28.612Z,2.70
2022-11-13T10:46:28.603Z,3.60
2022-11-13T10:47:57.309Z,2.20
2022-11-13T10:48:30.023Z,3.30
2022-11-13T10:49:28.583Z,2.90
2022-11-13T10:50:28.553Z,2.10
2022-11-13T10:51:28.544Z,3.30
2022-11-13T10:52:28.531Z,3.10
2022-11-13T10:53:28.884Z,2.90
2022-11-13T10:54:28.532Z,2.80
2022-11-13T10:55:28.504Z,2.70
2022-11-13T10:56:28.538Z,2.00
2022-11-13T10:57:28.485Z,4.50
2022-11-13T10:58:28.911Z,2.50
2022-11-13T10:59:28.478Z,3.10
2022-11-13T11:00:28.443Z,2.70
2022-11-13T11:01:28.456Z,3.20
2022-11-13T11:02:28.421Z,2.20
2022-11-13T11:03:28.428Z,2.30
2022-11-13T11:04:28.428Z,2.40
2022-11-13T11:05:28.387Z,2.50
2022-11-13T11:06:48.725Z,2.20
2022-11-13T11:07:29.416Z,2.10
2022-11-13T11:08:28.691Z,3.00
2022-11-13T11:09:28.370Z,2.50
2022-11-13T11:10:28.329Z,3.60
2022-11-13T11:11:28.320Z,2.40
2022-11-13T11:12:31.100Z,3.50
2022-11-13T11:13:28.301Z,2.50
2022-11-13T11:14:28.301Z,2.30
2022-11-13T11:15:28.284Z,2.20
2022-11-13T11:16:28.281Z,3.60
2022-11-13T11:17:28.251Z,2.70
2022-11-13T11:18:28.648Z,2.00
2022-11-13T11:19:28.252Z,3.00
2022-11-13T11:20:28.242Z,2.30
2022-11-13T11:21:28.216Z,1.40
2022-11-13T11:22:28.192Z,4.20
2022-11-13T11:23:28.196Z,2.30
2022-11-13T11:24:28.173Z,2.10
2022-11-13T11:25:28.194Z,2.60
2022-11-13T11:26:28.153Z,2.70
2022-11-13T11:27:28.145Z,1.50
2022-11-13T11:28:28.566Z,2.40
2022-11-13T11:29:28.126Z,1.80
2022-11-13T11:30:28.135Z,1.60
2022-11-13T11:31:28.104Z,2.70
2022-11-13T11:32:28.085Z,1.40
2022-11-13T11:33:28.097Z,3.10
2022-11-13T11:34:28.068Z,1.20
2022-11-13T11:35:28.085Z,3.30
2022-11-13T11:36:28.051Z,1.70
2022-11-13T11:37:28.037Z,2.00
2022-11-13T11:38:28.453Z,1.80
2022-11-13T11:39:28.010Z,2.00
2022-11-13T11:40:28.019Z,2.70
2022-11-13T11:41:28.012Z,2.00
2022-11-13T11:42:27.981Z,2.10
2022-11-13T11:43:27.978Z,1.80
2022-11-13T11:44:27.951Z,2.80
2022-11-13T11:45:27.948Z,2.00
2022-11-13T11:46:27.961Z,2.20
2022-11-13T11:47:27.923Z,1.40
2022-11-13T11:48:28.293Z,2.50
2022-11-13T11:49:27.904Z,2.50
2022-11-13T11:50:27.891Z,2.20
2022-11-13T11:51:27.893Z,4.30
2022-11-13T11:52:27.894Z,3.80
2022-11-13T11:53:27.862Z,2.30
2022-11-13T11:54:27.845Z,2.10
2022-11-13T11:55:27.834Z,2.90
2022-11-13T11:56:27.814Z,3.60
2022-11-13T11:57:27.860Z,3.40
2022-11-13T11:58:28.060Z,1.30
2022-11-13T11:59:27.786Z,1.80
2022-11-13T12:00:27.774Z,1.60
2022-11-13T12:01:27.766Z,1.70
2022-11-13T12:02:27.758Z,2.60
2022-11-13T12:03:27.773Z,4.20
2022-11-13T12:04:27.728Z,1.40
2022-11-13T12:05:27.759Z,1.80
2022-11-13T12:06:27.706Z,3.30
2022-11-13T12:07:27.798Z,1.90
2022-11-13T12:08:28.007Z,2.30
2022-11-13T12:09:27.679Z,1.60
2022-11-13T12:10:27.676Z,2.80
2022-11-13T12:11:27.656Z,2.00
2022-11-13T12:12:27.669Z,1.70
2022-11-13T12:13:27.651Z,2.50
2022-11-13T12:14:27.630Z,1.60
2022-11-13T12:15:27.612Z,0.90
2022-11-13T12:16:27.606Z,1.70
2022-11-13T12:17:27.612Z,1.60
2022-11-13T12:18:27.807Z,2.10
2022-11-13T12:19:27.571Z,4.10
2022-11-13T12:20:27.629Z,2.60
2022-11-13T12:21:27.543Z,4.00
2022-11-13T12:22:30.886Z,2.20
2022-11-13T12:23:27.652Z,2.40
2022-11-13T12:24:27.533Z,2.50
2022-11-13T12:25:27.503Z,1.90
2022-11-13T12:26:27.495Z,1.80
2022-11-13T12:27:27.483Z,4.60
2022-11-13T12:28:27.771Z,2.20
2022-11-13T12:29:27.494Z,1.80
2022-11-13T12:30:27.446Z,3.00
2022-11-13T12:31:27.445Z,3.10
2022-11-13T12:32:27.436Z,1.20
2022-11-13T12:33:27.428Z,3.80
2022-11-13T12:34:27.399Z,3.50
2022-11-13T12:35:27.418Z,2.40
2022-11-13T12:36:27.376Z,1.90
2022-11-13T12:37:27.370Z,1.20
2022-11-13T12:38:27.831Z,1.20
2022-11-13T12:39:27.368Z,1.70
2022-11-13T12:40:27.359Z,2.00
2022-11-13T12:41:27.328Z,1.90
2022-11-13T12:42:27.321Z,2.30
2022-11-13T12:43:27.454Z,1.90
2022-11-13T12:44:27.290Z,2.40
2022-11-13T12:45:27.310Z,2.00
2022-11-13T12:46:27.272Z,1.50
2022-11-13T12:47:27.266Z,1.90
2022-11-13T12:48:27.622Z,1.80
2022-11-13T12:49:27.242Z,1.60
2022-11-13T12:50:31.871Z,1.40
2022-11-13T12:51:28.245Z,1.40
2022-11-13T12:52:27.205Z,1.50
2022-11-13T12:53:27.216Z,2.70
2022-11-13T12:54:27.184Z,3.00
2022-11-13T12:55:27.178Z,2.00
2022-11-13T12:56:27.163Z,1.10
2022-11-13T12:57:30.469Z,1.80
2022-11-13T12:58:27.558Z,1.90
2022-11-13T12:59:31.536Z,0.70
2022-11-13T13:00:27.139Z,1.90
2022-11-13T13:01:27.225Z,1.60
2022-11-13T13:02:27.103Z,3.10
2022-11-13T13:03:27.109Z,1.00
2022-11-13T13:04:27.087Z,1.20
2022-11-13T13:05:27.075Z,3.30
2022-11-13T13:06:27.077Z,1.70
2022-11-13T13:07:27.094Z,4.80
2022-11-13T13:08:27.387Z,1.60
2022-11-13T13:09:27.029Z,1.00
2022-11-13T13:10:27.009Z,2.00
2022-11-13T13:11:27.005Z,1.50